OEMKR LOGI-LOWG

Flight info

Callsign OEMKR
Flight time 0h 21m
Altitude 15000
Route LEOBE LEOBE2M
Aircraft PC12/L-SDFGRWY/S

Departure

Time 2026-05-08 18:47
Airport Trieben Airfield (LOGI)

Arrival

Time 2026-05-08 19:08
Airport Graz Airport (LOWG)
Time Latitude Longitude Altitude Speed Heading
2026-05-08 18:41 47.49314 14.49463 2317 ft 0 kts 28°
2026-05-08 18:42 47.49314 14.49464 2317 ft 1 kts 28°
2026-05-08 18:43 47.49347 14.49490 2315 ft 8 kts 27°
2026-05-08 18:43 47.49370 14.49456 2313 ft 10 kts 286°
2026-05-08 18:43 47.49403 14.49350 2312 ft 14 kts 291°
2026-05-08 18:43 47.49443 14.49212 2315 ft 13 kts 295°
2026-05-08 18:44 47.49451 14.49189 2323 ft 4 kts 121°
2026-05-08 18:44 47.49445 14.49201 2311 ft 0 kts 112°
2026-05-08 18:46 47.49444 14.49204 2313 ft 3 kts 112°
2026-05-08 18:46 47.49357 14.49506 2322 ft 63 kts 113°
2026-05-08 18:46 47.49132 14.50267 2472 ft 88 kts 107°
2026-05-08 18:46 47.49084 14.51204 2811 ft 97 kts 88°
2026-05-08 18:47 47.49295 14.52160 3171 ft 106 kts 36°
2026-05-08 18:47 47.49710 14.53013 3532 ft 112 kts 94°
2026-05-08 18:47 47.49207 14.53809 3980 ft 107 kts 148°
2026-05-08 18:47 47.48612 14.54402 4465 ft 100 kts 137°
2026-05-08 18:48 47.48338 14.55257 4949 ft 90 kts 108°
2026-05-08 18:48 47.48126 14.56042 5405 ft 80 kts 108°
2026-05-08 18:48 47.47933 14.56766 5772 ft 73 kts 107°
2026-05-08 18:48 47.47730 14.57500 5988 ft 87 kts 110°
2026-05-08 18:49 47.47486 14.58450 6244 ft 104 kts 110°
2026-05-08 18:49 47.47228 14.59506 6630 ft 118 kts 109°
2026-05-08 18:49 47.46924 14.60760 7031 ft 141 kts 109°
2026-05-08 18:49 47.46573 14.62235 7463 ft 161 kts 109°
2026-05-08 18:50 47.46189 14.63864 7888 ft 175 kts 109°
2026-05-08 18:50 47.45780 14.65617 8312 ft 184 kts 109°
2026-05-08 18:50 47.45362 14.67411 8712 ft 185 kts 110°
2026-05-08 18:50 47.44943 14.69207 9105 ft 184 kts 109°
2026-05-08 18:51 47.44522 14.70993 9492 ft 184 kts 109°
2026-05-08 18:51 47.44093 14.72788 9892 ft 189 kts 112°
2026-05-08 18:51 47.43539 14.74635 10259 ft 206 kts 114°
2026-05-08 18:51 47.42968 14.76661 10520 ft 219 kts 111°
2026-05-08 18:52 47.42443 14.78761 10774 ft 217 kts 110°
2026-05-08 18:52 47.41926 14.80850 11017 ft 216 kts 110°
2026-05-08 18:52 47.41395 14.82956 11078 ft 222 kts 111°
2026-05-08 18:52 47.40854 14.85083 11077 ft 222 kts 110°
2026-05-08 18:53 47.40295 14.87287 11089 ft 235 kts 111°
2026-05-08 18:53 47.39705 14.89580 11090 ft 241 kts 111°
2026-05-08 18:53 47.39113 14.91897 11090 ft 240 kts 111°
2026-05-08 18:53 47.38528 14.94212 11091 ft 240 kts 111°
2026-05-08 18:54 47.37944 14.96518 11088 ft 241 kts 111°
2026-05-08 18:54 47.37353 14.98828 11087 ft 240 kts 112°
2026-05-08 18:54 47.36336 15.00709 11072 ft 238 kts 149°
2026-05-08 18:54 47.34800 15.01422 11046 ft 236 kts 171°
2026-05-08 18:55 47.31647 15.02768 10561 ft 234 kts 155°
2026-05-08 18:55 47.30224 15.03926 10317 ft 233 kts 151°
2026-05-08 18:55 47.28811 15.05081 10080 ft 232 kts 153°
2026-05-08 18:56 47.27381 15.06170 9817 ft 229 kts 154°
2026-05-08 18:56 47.25961 15.07242 9553 ft 230 kts 153°
2026-05-08 18:56 47.24535 15.08332 9294 ft 230 kts 153°
2026-05-08 18:56 47.23115 15.09419 9036 ft 229 kts 153°
2026-05-08 18:57 47.21698 15.10501 8778 ft 228 kts 153°
2026-05-08 18:57 47.20768 15.11211 8602 ft 228 kts 153°
2026-05-08 18:57 47.18890 15.12641 8260 ft 226 kts 153°
2026-05-08 18:57 47.17497 15.13703 8008 ft 224 kts 153°
2026-05-08 18:58 47.16121 15.14751 7758 ft 223 kts 153°
2026-05-08 18:58 47.14747 15.15796 7507 ft 221 kts 153°
2026-05-08 18:58 47.13378 15.16837 7259 ft 220 kts 153°
2026-05-08 18:58 47.11997 15.17803 7010 ft 220 kts 159°
2026-05-08 18:59 47.10563 15.18570 6756 ft 218 kts 160°
2026-05-08 18:59 47.09148 15.19373 6514 ft 218 kts 158°
2026-05-08 18:59 47.07778 15.20208 6374 ft 215 kts 158°
2026-05-08 18:59 47.06399 15.21049 6249 ft 214 kts 158°
2026-05-08 19:00 47.05465 15.21613 6155 ft 214 kts 158°
2026-05-08 19:00 47.03639 15.22710 5986 ft 214 kts 158°
2026-05-08 19:00 47.02264 15.23536 5862 ft 214 kts 158°
2026-05-08 19:00 47.00889 15.24364 5730 ft 214 kts 158°
2026-05-08 19:01 46.99512 15.25191 5605 ft 213 kts 158°
2026-05-08 19:01 46.98145 15.26012 5507 ft 212 kts 157°
2026-05-08 19:01 46.96832 15.26955 5365 ft 210 kts 140°
2026-05-08 19:01 46.95983 15.28683 5235 ft 211 kts 122°
2026-05-08 19:02 46.95169 15.30467 5117 ft 207 kts 124°
2026-05-08 19:02 46.94377 15.32146 4985 ft 196 kts 125°
2026-05-08 19:02 46.93615 15.33783 4855 ft 193 kts 125°
2026-05-08 19:02 46.92865 15.35403 4717 ft 190 kts 125°
2026-05-08 19:03 46.92125 15.37004 4585 ft 189 kts 125°
2026-05-08 19:03 46.91392 15.38590 4370 ft 186 kts 125°
2026-05-08 19:03 46.90705 15.40079 4104 ft 171 kts 124°
2026-05-08 19:03 46.90271 15.41023 3921 ft 168 kts 125°
2026-05-08 19:04 46.89629 15.42422 3657 ft 164 kts 125°
2026-05-08 19:04 46.89086 15.43850 3386 ft 163 kts 104°
2026-05-08 19:04 46.89356 15.46013 3051 ft 166 kts 74°
2026-05-08 19:04 46.90003 15.47409 2791 ft 170 kts 46°
2026-05-08 19:05 46.90605 15.48132 2621 ft 163 kts 32°
2026-05-08 19:05 46.91663 15.48500 2202 ft 142 kts
2026-05-08 19:05 46.92497 15.48155 2012 ft 111 kts 331°
2026-05-08 19:05 46.93034 15.47420 2000 ft 103 kts 306°
2026-05-08 19:06 46.93441 15.46538 1845 ft 108 kts 301°
2026-05-08 19:06 46.93890 15.45676 1684 ft 106 kts 321°
2026-05-08 19:06 46.94516 15.45163 1541 ft 105 kts 341°
2026-05-08 19:06 46.95205 15.44859 1470 ft 104 kts 349°
2026-05-08 19:07 46.95935 15.44680 1379 ft 101 kts 354°
2026-05-08 19:07 46.96589 15.44525 1222 ft 94 kts 350°
2026-05-08 19:07 46.97251 15.44380 1166 ft 93 kts 356°
2026-05-08 19:07 46.97862 15.44295 1121 ft 86 kts 350°
2026-05-08 19:08 46.98298 15.44181 1108 ft 39 kts 348°
2026-05-08 19:08 46.98606 15.44102 1108 ft 51 kts 351°
2026-05-08 19:08 46.98871 15.44027 1104 ft 20 kts 353°
2026-05-08 19:08 46.98892 15.44023 1108 ft 3 kts 347°